sensor_id;sensor_type;location;lat;lon;timestamp;P1;durP1;ratioP1;P2;durP2;ratioP2
25667;SDS011;18003;-33.830;151.202;2022-12-08T00:00:43;8.63;;;3.33;;
25667;SDS011;18003;-33.830;151.202;2022-12-08T00:03:13;10.58;;;3.20;;
25667;SDS011;18003;-33.830;151.202;2022-12-08T00:05:43;11.75;;;3.50;;
25667;SDS011;18003;-33.830;151.202;2022-12-08T00:08:31;9.73;;;3.33;;
25667;SDS011;18003;-33.830;151.202;2022-12-08T00:11:19;12.05;;;3.27;;
25667;SDS011;18003;-33.830;151.202;2022-12-08T00:13:49;12.05;;;4.20;;
25667;SDS011;18003;-33.830;151.202;2022-12-08T00:16:19;10.35;;;4.12;;
25667;SDS011;18003;-33.830;151.202;2022-12-08T00:18:50;8.23;;;3.70;;
25667;SDS011;18003;-33.830;151.202;2022-12-08T00:21:20;8.48;;;3.95;;
25667;SDS011;18003;-33.830;151.202;2022-12-08T00:23:53;8.95;;;3.92;;
25667;SDS011;18003;-33.830;151.202;2022-12-08T00:26:23;7.90;;;3.87;;
25667;SDS011;18003;-33.830;151.202;2022-12-08T00:28:53;7.33;;;3.40;;
25667;SDS011;18003;-33.830;151.202;2022-12-08T00:31:23;8.43;;;2.90;;
25667;SDS011;18003;-33.830;151.202;2022-12-08T00:33:57;13.80;;;4.00;;
25667;SDS011;18003;-33.830;151.202;2022-12-08T00:36:29;10.73;;;3.83;;
25667;SDS011;18003;-33.830;151.202;2022-12-08T00:38:59;9.75;;;3.92;;
25667;SDS011;18003;-33.830;151.202;2022-12-08T00:41:29;9.78;;;3.90;;
25667;SDS011;18003;-33.830;151.202;2022-12-08T00:44:16;12.03;;;3.90;;
25667;SDS011;18003;-33.830;151.202;2022-12-08T00:46:47;11.40;;;4.17;;
25667;SDS011;18003;-33.830;151.202;2022-12-08T00:49:17;8.40;;;4.47;;
25667;SDS011;18003;-33.830;151.202;2022-12-08T00:51:47;9.90;;;4.10;;
25667;SDS011;18003;-33.830;151.202;2022-12-08T00:54:17;11.63;;;3.80;;
25667;SDS011;18003;-33.830;151.202;2022-12-08T00:56:48;7.42;;;3.90;;
25667;SDS011;18003;-33.830;151.202;2022-12-08T00:59:18;9.53;;;3.95;;
25667;SDS011;18003;-33.830;151.202;2022-12-08T01:01:48;8.25;;;3.58;;
25667;SDS011;18003;-33.830;151.202;2022-12-08T01:04:18;9.75;;;3.85;;
25667;SDS011;18003;-33.830;151.202;2022-12-08T01:06:48;10.00;;;3.60;;
25667;SDS011;18003;-33.830;151.202;2022-12-08T01:09:19;9.98;;;3.40;;
25667;SDS011;18003;-33.830;151.202;2022-12-08T01:11:49;12.20;;;3.50;;
25667;SDS011;18003;-33.830;151.202;2022-12-08T01:14:19;10.55;;;4.00;;
25667;SDS011;18003;-33.830;151.202;2022-12-08T01:16:49;7.75;;;3.77;;
25667;SDS011;18003;-33.830;151.202;2022-12-08T01:19:19;8.20;;;4.22;;
25667;SDS011;18003;-33.830;151.202;2022-12-08T01:21:49;10.45;;;4.00;;
25667;SDS011;18003;-33.830;151.202;2022-12-08T01:24:19;12.00;;;4.10;;
25667;SDS011;18003;-33.830;151.202;2022-12-08T01:26:49;10.58;;;4.37;;
25667;SDS011;18003;-33.830;151.202;2022-12-08T01:29:19;11.70;;;4.37;;
25667;SDS011;18003;-33.830;151.202;2022-12-08T01:31:49;8.00;;;4.05;;
25667;SDS011;18003;-33.830;151.202;2022-12-08T01:34:19;11.30;;;4.92;;
25667;SDS011;18003;-33.830;151.202;2022-12-08T01:36:49;10.70;;;4.28;;
25667;SDS011;18003;-33.830;151.202;2022-12-08T01:39:20;9.75;;;3.72;;
25667;SDS011;18003;-33.830;151.202;2022-12-08T01:41:50;9.68;;;3.85;;
25667;SDS011;18003;-33.830;151.202;2022-12-08T01:46:52;11.95;;;4.12;;
25667;SDS011;18003;-33.830;151.202;2022-12-08T01:49:26;10.30;;;4.00;;
25667;SDS011;18003;-33.830;151.202;2022-12-08T01:54:52;12.55;;;5.00;;
25667;SDS011;18003;-33.830;151.202;2022-12-08T01:57:24;12.37;;;4.40;;
25667;SDS011;18003;-33.830;151.202;2022-12-08T01:59:59;11.60;;;3.80;;
25667;SDS011;18003;-33.830;151.202;2022-12-08T02:02:30;12.28;;;3.70;;
25667;SDS011;18003;-33.830;151.202;2022-12-08T02:05:01;8.15;;;3.50;;
25667;SDS011;18003;-33.830;151.202;2022-12-08T02:07:33;13.38;;;3.50;;
25667;SDS011;18003;-33.830;151.202;2022-12-08T02:10:04;11.12;;;3.70;;
25667;SDS011;18003;-33.830;151.202;2022-12-08T02:12:38;13.45;;;4.30;;
25667;SDS011;18003;-33.830;151.202;2022-12-08T02:15:10;14.47;;;3.50;;
25667;SDS011;18003;-33.830;151.202;2022-12-08T02:22:59;11.23;;;3.90;;
25667;SDS011;18003;-33.830;151.202;2022-12-08T02:33:26;11.43;;;;;
25667;SDS011;18003;-33.830;151.202;2022-12-08T02:36:18;13.80;;;3.80;;
25667;SDS011;18003;-33.830;151.202;2022-12-08T02:41:36;10.03;;;3.65;;
25667;SDS011;18003;-33.830;151.202;2022-12-08T02:44:08;13.32;;;3.45;;
25667;SDS011;18003;-33.830;151.202;2022-12-08T02:47:02;9.00;;;3.40;;
25667;SDS011;18003;-33.830;151.202;2022-12-08T02:49:30;9.93;;;3.47;;
25667;SDS011;18003;-33.830;151.202;2022-12-08T02:54:58;9.78;;;3.27;;
25667;SDS011;18003;-33.830;151.202;2022-12-08T02:57:23;7.75;;;3.00;;
25667;SDS011;18003;-33.830;151.202;2022-12-08T03:08:26;8.60;;;3.58;;
25667;SDS011;18003;-33.830;151.202;2022-12-08T03:11:08;6.42;;;3.17;;
25667;SDS011;18003;-33.830;151.202;2022-12-08T03:13:44;8.98;;;3.60;;
25667;SDS011;18003;-33.830;151.202;2022-12-08T03:16:16;11.90;;;3.75;;
25667;SDS011;18003;-33.830;151.202;2022-12-08T03:18:47;10.85;;;3.52;;
25667;SDS011;18003;-33.830;151.202;2022-12-08T03:21:18;12.03;;;3.40;;
25667;SDS011;18003;-33.830;151.202;2022-12-08T03:23:50;10.05;;;4.22;;
25667;SDS011;18003;-33.830;151.202;2022-12-08T03:26:29;9.28;;;3.45;;
25667;SDS011;18003;-33.830;151.202;2022-12-08T03:29:00;7.25;;;3.10;;
25667;SDS011;18003;-33.830;151.202;2022-12-08T03:31:31;7.30;;;3.40;;
25667;SDS011;18003;-33.830;151.202;2022-12-08T03:34:02;9.35;;;3.30;;
25667;SDS011;18003;-33.830;151.202;2022-12-08T03:36:33;8.63;;;3.10;;
25667;SDS011;18003;-33.830;151.202;2022-12-08T03:39:04;7.62;;;3.15;;
25667;SDS011;18003;-33.830;151.202;2022-12-08T03:41:34;9.13;;;3.22;;
25667;SDS011;18003;-33.830;151.202;2022-12-08T03:44:04;7.28;;;3.30;;
25667;SDS011;18003;-33.830;151.202;2022-12-08T03:46:34;11.50;;;3.00;;
25667;SDS011;18003;-33.830;151.202;2022-12-08T03:49:04;9.33;;;3.00;;
25667;SDS011;18003;-33.830;151.202;2022-12-08T03:51:34;6.87;;;2.90;;
25667;SDS011;18003;-33.830;151.202;2022-12-08T03:54:04;11.93;;;3.85;;
25667;SDS011;18003;-33.830;151.202;2022-12-08T03:56:35;6.40;;;2.83;;
25667;SDS011;18003;-33.830;151.202;2022-12-08T03:59:06;7.37;;;3.33;;
25667;SDS011;18003;-33.830;151.202;2022-12-08T04:01:37;8.65;;;3.35;;
25667;SDS011;18003;-33.830;151.202;2022-12-08T04:04:07;5.85;;;3.10;;
25667;SDS011;18003;-33.830;151.202;2022-12-08T04:06:37;5.60;;;3.25;;
25667;SDS011;18003;-33.830;151.202;2022-12-08T04:09:07;5.12;;;3.10;;
25667;SDS011;18003;-33.830;151.202;2022-12-08T04:11:37;7.20;;;3.00;;
25667;SDS011;18003;-33.830;151.202;2022-12-08T04:14:07;6.72;;;2.50;;
25667;SDS011;18003;-33.830;151.202;2022-12-08T04:16:36;6.67;;;2.60;;
25667;SDS011;18003;-33.830;151.202;2022-12-08T04:19:06;5.90;;;2.20;;
25667;SDS011;18003;-33.830;151.202;2022-12-08T04:21:36;4.92;;;2.85;;
25667;SDS011;18003;-33.830;151.202;2022-12-08T04:24:06;4.42;;;2.80;;
25667;SDS011;18003;-33.830;151.202;2022-12-08T04:26:37;6.00;;;2.65;;
25667;SDS011;18003;-33.830;151.202;2022-12-08T04:29:07;6.45;;;2.87;;
25667;SDS011;18003;-33.830;151.202;2022-12-08T04:31:37;6.10;;;2.90;;
25667;SDS011;18003;-33.830;151.202;2022-12-08T04:34:07;5.83;;;3.08;;
25667;SDS011;18003;-33.830;151.202;2022-12-08T04:36:38;7.25;;;3.00;;
25667;SDS011;18003;-33.830;151.202;2022-12-08T04:39:08;5.50;;;2.92;;
25667;SDS011;18003;-33.830;151.202;2022-12-08T04:41:38;5.53;;;2.80;;
25667;SDS011;18003;-33.830;151.202;2022-12-08T04:44:08;4.87;;;2.60;;
25667;SDS011;18003;-33.830;151.202;2022-12-08T04:46:39;8.40;;;2.47;;
25667;SDS011;18003;-33.830;151.202;2022-12-08T04:49:09;4.58;;;2.40;;
25667;SDS011;18003;-33.830;151.202;2022-12-08T04:51:39;6.53;;;2.40;;
25667;SDS011;18003;-33.830;151.202;2022-12-08T04:54:09;7.65;;;2.60;;
25667;SDS011;18003;-33.830;151.202;2022-12-08T04:56:39;5.80;;;2.50;;
25667;SDS011;18003;-33.830;151.202;2022-12-08T04:59:09;4.53;;;2.70;;
25667;SDS011;18003;-33.830;151.202;2022-12-08T05:01:39;4.30;;;2.27;;
25667;SDS011;18003;-33.830;151.202;2022-12-08T05:04:09;5.58;;;2.65;;
25667;SDS011;18003;-33.830;151.202;2022-12-08T05:06:39;7.60;;;2.52;;
25667;SDS011;18003;-33.830;151.202;2022-12-08T05:09:10;5.62;;;2.60;;
25667;SDS011;18003;-33.830;151.202;2022-12-08T05:11:40;6.55;;;2.50;;
25667;SDS011;18003;-33.830;151.202;2022-12-08T05:14:10;6.80;;;2.75;;
25667;SDS011;18003;-33.830;151.202;2022-12-08T05:16:41;7.12;;;2.60;;
25667;SDS011;18003;-33.830;151.202;2022-12-08T05:19:11;4.90;;;2.37;;
25667;SDS011;18003;-33.830;151.202;2022-12-08T05:21:41;4.85;;;2.12;;
25667;SDS011;18003;-33.830;151.202;2022-12-08T05:24:11;3.87;;;2.17;;
25667;SDS011;18003;-33.830;151.202;2022-12-08T05:26:41;4.83;;;1.90;;
25667;SDS011;18003;-33.830;151.202;2022-12-08T05:29:12;7.17;;;2.30;;
25667;SDS011;18003;-33.830;151.202;2022-12-08T05:31:42;4.70;;;2.20;;
25667;SDS011;18003;-33.830;151.202;2022-12-08T05:34:12;5.33;;;2.45;;
25667;SDS011;18003;-33.830;151.202;2022-12-08T05:36:43;4.47;;;2.40;;
25667;SDS011;18003;-33.830;151.202;2022-12-08T05:39:13;6.50;;;2.33;;
25667;SDS011;18003;-33.830;151.202;2022-12-08T05:41:43;6.25;;;2.30;;
25667;SDS011;18003;-33.830;151.202;2022-12-08T05:44:13;4.65;;;2.33;;
25667;SDS011;18003;-33.830;151.202;2022-12-08T05:46:43;6.33;;;2.27;;
25667;SDS011;18003;-33.830;151.202;2022-12-08T05:49:15;4.90;;;2.52;;
25667;SDS011;18003;-33.830;151.202;2022-12-08T05:51:45;7.77;;;2.70;;
25667;SDS011;18003;-33.830;151.202;2022-12-08T05:54:15;5.80;;;2.40;;
25667;SDS011;18003;-33.830;151.202;2022-12-08T05:56:45;7.85;;;3.42;;
25667;SDS011;18003;-33.830;151.202;2022-12-08T05:59:15;4.75;;;2.47;;
25667;SDS011;18003;-33.830;151.202;2022-12-08T06:01:45;6.22;;;2.40;;
25667;SDS011;18003;-33.830;151.202;2022-12-08T06:04:15;5.83;;;2.52;;
25667;SDS011;18003;-33.830;151.202;2022-12-08T06:06:45;5.95;;;1.80;;
25667;SDS011;18003;-33.830;151.202;2022-12-08T06:09:15;6.42;;;2.10;;
25667;SDS011;18003;-33.830;151.202;2022-12-08T06:11:45;4.42;;;1.90;;
25667;SDS011;18003;-33.830;151.202;2022-12-08T06:14:15;5.45;;;2.17;;
25667;SDS011;18003;-33.830;151.202;2022-12-08T06:16:45;5.20;;;2.35;;
25667;SDS011;18003;-33.830;151.202;2022-12-08T06:19:15;5.58;;;2.50;;
25667;SDS011;18003;-33.830;151.202;2022-12-08T06:21:45;6.58;;;2.00;;
25667;SDS011;18003;-33.830;151.202;2022-12-08T06:24:15;5.60;;;2.10;;
25667;SDS011;18003;-33.830;151.202;2022-12-08T06:26:45;7.03;;;2.30;;
25667;SDS011;18003;-33.830;151.202;2022-12-08T06:29:15;5.42;;;2.30;;
25667;SDS011;18003;-33.830;151.202;2022-12-08T06:31:45;3.50;;;2.17;;
25667;SDS011;18003;-33.830;151.202;2022-12-08T06:34:15;4.40;;;2.10;;
25667;SDS011;18003;-33.830;151.202;2022-12-08T06:36:46;3.50;;;2.15;;
25667;SDS011;18003;-33.830;151.202;2022-12-08T06:39:15;4.20;;;2.12;;
25667;SDS011;18003;-33.830;151.202;2022-12-08T06:41:46;6.03;;;2.05;;
25667;SDS011;18003;-33.830;151.202;2022-12-08T06:44:33;3.58;;;2.00;;
25667;SDS011;18003;-33.830;151.202;2022-12-08T06:47:03;4.05;;;2.17;;
25667;SDS011;18003;-33.830;151.202;2022-12-08T06:49:33;4.53;;;1.95;;
25667;SDS011;18003;-33.830;151.202;2022-12-08T06:52:04;5.78;;;2.08;;
25667;SDS011;18003;-33.830;151.202;2022-12-08T06:54:34;6.08;;;2.00;;
25667;SDS011;18003;-33.830;151.202;2022-12-08T06:57:09;4.83;;;1.92;;
25667;SDS011;18003;-33.830;151.202;2022-12-08T06:59:42;6.22;;;2.10;;
25667;SDS011;18003;-33.830;151.202;2022-12-08T07:02:12;2.80;;;1.98;;
25667;SDS011;18003;-33.830;151.202;2022-12-08T07:04:42;3.15;;;1.90;;
25667;SDS011;18003;-33.830;151.202;2022-12-08T07:07:12;6.42;;;2.25;;
25667;SDS011;18003;-33.830;151.202;2022-12-08T07:09:43;5.50;;;2.17;;
25667;SDS011;18003;-33.830;151.202;2022-12-08T07:12:13;8.85;;;2.80;;
25667;SDS011;18003;-33.830;151.202;2022-12-08T07:14:43;4.95;;;2.77;;
25667;SDS011;18003;-33.830;151.202;2022-12-08T07:17:13;4.28;;;2.50;;
25667;SDS011;18003;-33.830;151.202;2022-12-08T07:19:43;4.65;;;2.40;;
25667;SDS011;18003;-33.830;151.202;2022-12-08T07:22:13;4.15;;;2.25;;
25667;SDS011;18003;-33.830;151.202;2022-12-08T07:24:42;4.15;;;2.50;;
25667;SDS011;18003;-33.830;151.202;2022-12-08T07:27:13;8.60;;;2.20;;
25667;SDS011;18003;-33.830;151.202;2022-12-08T07:29:43;6.17;;;2.60;;
25667;SDS011;18003;-33.830;151.202;2022-12-08T07:32:12;4.17;;;2.45;;
25667;SDS011;18003;-33.830;151.202;2022-12-08T07:34:42;7.37;;;2.50;;
25667;SDS011;18003;-33.830;151.202;2022-12-08T07:37:12;4.03;;;2.30;;
25667;SDS011;18003;-33.830;151.202;2022-12-08T07:39:42;4.37;;;1.90;;
25667;SDS011;18003;-33.830;151.202;2022-12-08T07:42:13;5.03;;;2.10;;
25667;SDS011;18003;-33.830;151.202;2022-12-08T07:44:43;4.58;;;2.00;;
25667;SDS011;18003;-33.830;151.202;2022-12-08T07:47:13;4.80;;;2.10;;
25667;SDS011;18003;-33.830;151.202;2022-12-08T07:49:48;5.35;;;2.30;;
25667;SDS011;18003;-33.830;151.202;2022-12-08T07:52:14;4.45;;;2.10;;
25667;SDS011;18003;-33.830;151.202;2022-12-08T07:54:45;7.15;;;2.02;;
25667;SDS011;18003;-33.830;151.202;2022-12-08T07:57:15;6.75;;;2.10;;
25667;SDS011;18003;-33.830;151.202;2022-12-08T07:59:45;5.22;;;2.20;;
25667;SDS011;18003;-33.830;151.202;2022-12-08T08:02:16;6.45;;;2.27;;
25667;SDS011;18003;-33.830;151.202;2022-12-08T08:04:48;4.60;;;1.95;;
25667;SDS011;18003;-33.830;151.202;2022-12-08T08:07:23;4.35;;;2.10;;
25667;SDS011;18003;-33.830;151.202;2022-12-08T08:09:53;5.12;;;2.00;;
25667;SDS011;18003;-33.830;151.202;2022-12-08T08:12:23;3.50;;;1.82;;
25667;SDS011;18003;-33.830;151.202;2022-12-08T08:14:53;4.87;;;2.12;;
25667;SDS011;18003;-33.830;151.202;2022-12-08T08:17:23;3.62;;;2.22;;
25667;SDS011;18003;-33.830;151.202;2022-12-08T08:19:53;7.72;;;1.95;;
25667;SDS011;18003;-33.830;151.202;2022-12-08T08:22:24;4.83;;;2.10;;
25667;SDS011;18003;-33.830;151.202;2022-12-08T08:24:54;7.90;;;2.33;;
25667;SDS011;18003;-33.830;151.202;2022-12-08T08:27:24;4.17;;;2.20;;
25667;SDS011;18003;-33.830;151.202;2022-12-08T08:29:54;4.97;;;1.85;;
25667;SDS011;18003;-33.830;151.202;2022-12-08T08:32:24;5.35;;;1.90;;
25667;SDS011;18003;-33.830;151.202;2022-12-08T08:34:54;4.85;;;1.95;;
25667;SDS011;18003;-33.830;151.202;2022-12-08T08:37:24;4.55;;;2.00;;
25667;SDS011;18003;-33.830;151.202;2022-12-08T08:39:54;6.03;;;2.37;;
25667;SDS011;18003;-33.830;151.202;2022-12-08T08:42:24;7.12;;;2.05;;
25667;SDS011;18003;-33.830;151.202;2022-12-08T08:44:54;3.77;;;2.00;;
25667;SDS011;18003;-33.830;151.202;2022-12-08T08:47:24;5.17;;;2.33;;
25667;SDS011;18003;-33.830;151.202;2022-12-08T08:49:54;5.55;;;2.05;;
25667;SDS011;18003;-33.830;151.202;2022-12-08T08:52:24;6.05;;;2.15;;
25667;SDS011;18003;-33.830;151.202;2022-12-08T08:54:54;4.37;;;1.80;;
25667;SDS011;18003;-33.830;151.202;2022-12-08T08:57:25;4.62;;;1.90;;
25667;SDS011;18003;-33.830;151.202;2022-12-08T08:59:55;6.20;;;1.90;;
25667;SDS011;18003;-33.830;151.202;2022-12-08T09:02:25;5.47;;;1.87;;
25667;SDS011;18003;-33.830;151.202;2022-12-08T09:04:55;5.42;;;1.92;;
25667;SDS011;18003;-33.830;151.202;2022-12-08T09:07:25;6.35;;;1.98;;
25667;SDS011;18003;-33.830;151.202;2022-12-08T09:09:55;7.20;;;1.55;;
25667;SDS011;18003;-33.830;151.202;2022-12-08T09:12:26;6.47;;;1.80;;
25667;SDS011;18003;-33.830;151.202;2022-12-08T09:14:56;4.45;;;1.52;;
25667;SDS011;18003;-33.830;151.202;2022-12-08T09:17:26;4.97;;;1.70;;
25667;SDS011;18003;-33.830;151.202;2022-12-08T09:19:56;4.17;;;1.90;;
25667;SDS011;18003;-33.830;151.202;2022-12-08T09:22:26;4.43;;;1.87;;
25667;SDS011;18003;-33.830;151.202;2022-12-08T09:24:56;5.70;;;2.15;;
25667;SDS011;18003;-33.830;151.202;2022-12-08T09:27:26;6.35;;;1.90;;
25667;SDS011;18003;-33.830;151.202;2022-12-08T09:29:57;5.58;;;1.90;;
25667;SDS011;18003;-33.830;151.202;2022-12-08T09:32:27;7.42;;;1.95;;
25667;SDS011;18003;-33.830;151.202;2022-12-08T09:34:57;6.42;;;2.02;;
25667;SDS011;18003;-33.830;151.202;2022-12-08T09:37:27;8.70;;;2.20;;
25667;SDS011;18003;-33.830;151.202;2022-12-08T09:39:58;6.35;;;2.08;;
25667;SDS011;18003;-33.830;151.202;2022-12-08T09:42:32;5.62;;;1.90;;
25667;SDS011;18003;-33.830;151.202;2022-12-08T09:45:18;6.53;;;1.65;;
25667;SDS011;18003;-33.830;151.202;2022-12-08T09:47:57;7.30;;;1.85;;
25667;SDS011;18003;-33.830;151.202;2022-12-08T09:51:00;4.90;;;1.70;;
25667;SDS011;18003;-33.830;151.202;2022-12-08T09:53:15;4.70;;;1.57;;
25667;SDS011;18003;-33.830;151.202;2022-12-08T09:55:55;4.70;;;1.70;;
25667;SDS011;18003;-33.830;151.202;2022-12-08T10:03:53;8.83;;;1.70;;
25667;SDS011;18003;-33.830;151.202;2022-12-08T10:06:35;5.25;;;1.72;;
25667;SDS011;18003;-33.830;151.202;2022-12-08T10:12:02;5.85;;;1.90;;
25667;SDS011;18003;-33.830;151.202;2022-12-08T10:17:24;3.65;;;2.08;;
25667;SDS011;18003;-33.830;151.202;2022-12-08T10:20:10;6.35;;;2.10;;
25667;SDS011;18003;-33.830;151.202;2022-12-08T10:22:40;4.87;;;1.80;;
25667;SDS011;18003;-33.830;151.202;2022-12-08T10:25:13;7.83;;;1.97;;
25667;SDS011;18003;-33.830;151.202;2022-12-08T10:27:46;3.77;;;1.85;;
25667;SDS011;18003;-33.830;151.202;2022-12-08T10:30:18;5.58;;;1.80;;
25667;SDS011;18003;-33.830;151.202;2022-12-08T10:32:50;6.97;;;2.08;;
25667;SDS011;18003;-33.830;151.202;2022-12-08T10:35:21;6.20;;;1.90;;
25667;SDS011;18003;-33.830;151.202;2022-12-08T10:38:01;7.80;;;2.15;;
25667;SDS011;18003;-33.830;151.202;2022-12-08T10:40:35;8.48;;;1.90;;
25667;SDS011;18003;-33.830;151.202;2022-12-08T10:43:11;8.40;;;2.12;;
25667;SDS011;18003;-33.830;151.202;2022-12-08T10:45:37;4.70;;;1.90;;
25667;SDS011;18003;-33.830;151.202;2022-12-08T10:50:55;7.50;;;1.90;;
25667;SDS011;18003;-33.830;151.202;2022-12-08T10:58:37;4.17;;;1.70;;
25667;SDS011;18003;-33.830;151.202;2022-12-08T11:01:25;5.87;;;2.15;;
25667;SDS011;18003;-33.830;151.202;2022-12-08T11:04:02;4.28;;;1.80;;
25667;SDS011;18003;-33.830;151.202;2022-12-08T11:09:01;6.60;;;2.10;;
25667;SDS011;18003;-33.830;151.202;2022-12-08T11:11:56;6.80;;;1.92;;
25667;SDS011;18003;-33.830;151.202;2022-12-08T11:14:17;4.65;;;1.80;;
25667;SDS011;18003;-33.830;151.202;2022-12-08T11:16:48;4.67;;;1.85;;
25667;SDS011;18003;-33.830;151.202;2022-12-08T11:19:19;5.55;;;1.82;;
25667;SDS011;18003;-33.830;151.202;2022-12-08T11:24:26;7.22;;;1.90;;
25667;SDS011;18003;-33.830;151.202;2022-12-08T11:27:00;7.03;;;1.67;;
25667;SDS011;18003;-33.830;151.202;2022-12-08T11:29:33;6.50;;;2.15;;
25667;SDS011;18003;-33.830;151.202;2022-12-08T11:32:07;6.60;;;1.90;;
25667;SDS011;18003;-33.830;151.202;2022-12-08T11:37:23;5.62;;;2.12;;
25667;SDS011;18003;-33.830;151.202;2022-12-08T11:39:54;7.92;;;1.82;;
25667;SDS011;18003;-33.830;151.202;2022-12-08T11:42:28;12.75;;;2.00;;
25667;SDS011;18003;-33.830;151.202;2022-12-08T11:44:58;6.33;;;2.15;;
25667;SDS011;18003;-33.830;151.202;2022-12-08T11:47:41;5.03;;;1.70;;
25667;SDS011;18003;-33.830;151.202;2022-12-08T11:52:51;4.00;;;1.80;;
25667;SDS011;18003;-33.830;151.202;2022-12-08T12:00:52;6.25;;;1.90;;
25667;SDS011;18003;-33.830;151.202;2022-12-08T12:03:28;7.85;;;2.45;;
25667;SDS011;18003;-33.830;151.202;2022-12-08T12:06:02;7.40;;;3.30;;
25667;SDS011;18003;-33.830;151.202;2022-12-08T12:08:59;4.60;;;2.60;;
25667;SDS011;18003;-33.830;151.202;2022-12-08T12:11:34;5.35;;;2.10;;
25667;SDS011;18003;-33.830;151.202;2022-12-08T12:20:01;5.58;;;1.95;;
25667;SDS011;18003;-33.830;151.202;2022-12-08T12:22:32;6.30;;;1.90;;
25667;SDS011;18003;-33.830;151.202;2022-12-08T12:25:03;5.53;;;2.00;;
25667;SDS011;18003;-33.830;151.202;2022-12-08T12:27:37;7.07;;;2.10;;
25667;SDS011;18003;-33.830;151.202;2022-12-08T12:30:12;4.85;;;2.10;;
25667;SDS011;18003;-33.830;151.202;2022-12-08T12:32:53;5.92;;;2.27;;
25667;SDS011;18003;-33.830;151.202;2022-12-08T12:35:29;4.90;;;2.17;;
25667;SDS011;18003;-33.830;151.202;2022-12-08T12:38:03;8.83;;;2.45;;
25667;SDS011;18003;-33.830;151.202;2022-12-08T12:40:39;4.60;;;2.33;;
25667;SDS011;18003;-33.830;151.202;2022-12-08T12:45:41;4.75;;;2.20;;
25667;SDS011;18003;-33.830;151.202;2022-12-08T12:48:21;7.10;;;2.25;;
25667;SDS011;18003;-33.830;151.202;2022-12-08T12:50:52;6.05;;;2.10;;
25667;SDS011;18003;-33.830;151.202;2022-12-08T12:55:55;6.20;;;2.37;;
25667;SDS011;18003;-33.830;151.202;2022-12-08T13:06:21;6.72;;;2.55;;
25667;SDS011;18003;-33.830;151.202;2022-12-08T13:08:53;3.65;;;1.95;;
25667;SDS011;18003;-33.830;151.202;2022-12-08T13:11:24;9.58;;;2.77;;
25667;SDS011;18003;-33.830;151.202;2022-12-08T13:13:55;6.92;;;2.40;;
25667;SDS011;18003;-33.830;151.202;2022-12-08T13:16:27;5.25;;;2.27;;
25667;SDS011;18003;-33.830;151.202;2022-12-08T13:19:08;8.03;;;2.75;;
25667;SDS011;18003;-33.830;151.202;2022-12-08T13:21:42;8.50;;;2.70;;
25667;SDS011;18003;-33.830;151.202;2022-12-08T13:29:34;7.70;;;2.20;;
25667;SDS011;18003;-33.830;151.202;2022-12-08T13:39:45;5.67;;;2.08;;
25667;SDS011;18003;-33.830;151.202;2022-12-08T13:50:20;8.58;;;2.27;;
25667;SDS011;18003;-33.830;151.202;2022-12-08T13:55:34;6.90;;;2.20;;
25667;SDS011;18003;-33.830;151.202;2022-12-08T13:58:04;7.72;;;2.30;;
25667;SDS011;18003;-33.830;151.202;2022-12-08T14:00:35;6.05;;;2.20;;
25667;SDS011;18003;-33.830;151.202;2022-12-08T14:03:07;7.53;;;2.25;;
25667;SDS011;18003;-33.830;151.202;2022-12-08T14:05:38;10.05;;;2.50;;
25667;SDS011;18003;-33.830;151.202;2022-12-08T14:10:46;5.70;;;2.45;;
25667;SDS011;18003;-33.830;151.202;2022-12-08T14:13:17;8.90;;;3.12;;
25667;SDS011;18003;-33.830;151.202;2022-12-08T14:15:47;5.17;;;2.20;;
25667;SDS011;18003;-33.830;151.202;2022-12-08T14:18:22;10.60;;;3.05;;
25667;SDS011;18003;-33.830;151.202;2022-12-08T14:21:03;7.70;;;2.67;;
25667;SDS011;18003;-33.830;151.202;2022-12-08T14:23:32;6.67;;;2.20;;
25667;SDS011;18003;-33.830;151.202;2022-12-08T14:26:03;9.05;;;2.33;;
25667;SDS011;18003;-33.830;151.202;2022-12-08T14:28:34;6.45;;;2.22;;
25667;SDS011;18003;-33.830;151.202;2022-12-08T14:31:05;7.45;;;2.08;;
25667;SDS011;18003;-33.830;151.202;2022-12-08T14:33:37;8.38;;;2.20;;
25667;SDS011;18003;-33.830;151.202;2022-12-08T14:36:08;7.62;;;2.42;;
25667;SDS011;18003;-33.830;151.202;2022-12-08T14:38:40;7.22;;;2.40;;
25667;SDS011;18003;-33.830;151.202;2022-12-08T14:41:11;11.50;;;2.95;;
25667;SDS011;18003;-33.830;151.202;2022-12-08T14:43:41;11.08;;;2.80;;
25667;SDS011;18003;-33.830;151.202;2022-12-08T14:46:20;12.10;;;2.60;;
25667;SDS011;18003;-33.830;151.202;2022-12-08T14:48:50;11.30;;;2.90;;
25667;SDS011;18003;-33.830;151.202;2022-12-08T14:51:29;7.85;;;2.77;;
25667;SDS011;18003;-33.830;151.202;2022-12-08T14:56:32;8.63;;;2.87;;
25667;SDS011;18003;-33.830;151.202;2022-12-08T15:02:12;8.98;;;2.52;;
25667;SDS011;18003;-33.830;151.202;2022-12-08T15:04:47;7.67;;;2.80;;
25667;SDS011;18003;-33.830;151.202;2022-12-08T15:07:23;5.67;;;2.00;;
25667;SDS011;18003;-33.830;151.202;2022-12-08T15:15:47;9.05;;;2.70;;
25667;SDS011;18003;-33.830;151.202;2022-12-08T15:18:27;8.78;;;2.35;;
25667;SDS011;18003;-33.830;151.202;2022-12-08T15:21:07;9.88;;;2.85;;
25667;SDS011;18003;-33.830;151.202;2022-12-08T15:23:45;10.28;;;2.60;;
25667;SDS011;18003;-33.830;151.202;2022-12-08T15:26:19;8.43;;;2.40;;
25667;SDS011;18003;-33.830;151.202;2022-12-08T15:28:50;9.50;;;3.12;;
25667;SDS011;18003;-33.830;151.202;2022-12-08T15:31:21;8.63;;;2.80;;
25667;SDS011;18003;-33.830;151.202;2022-12-08T15:33:50;9.75;;;2.80;;
25667;SDS011;18003;-33.830;151.202;2022-12-08T15:36:21;7.10;;;2.30;;
25667;SDS011;18003;-33.830;151.202;2022-12-08T15:38:51;10.13;;;3.00;;
25667;SDS011;18003;-33.830;151.202;2022-12-08T15:41:21;9.80;;;2.80;;
25667;SDS011;18003;-33.830;151.202;2022-12-08T15:43:51;10.20;;;2.58;;
25667;SDS011;18003;-33.830;151.202;2022-12-08T15:46:21;8.58;;;2.70;;
25667;SDS011;18003;-33.830;151.202;2022-12-08T15:48:51;8.50;;;2.80;;
25667;SDS011;18003;-33.830;151.202;2022-12-08T15:51:21;10.65;;;2.62;;
25667;SDS011;18003;-33.830;151.202;2022-12-08T15:53:51;8.65;;;2.50;;
25667;SDS011;18003;-33.830;151.202;2022-12-08T15:56:21;7.22;;;2.20;;
25667;SDS011;18003;-33.830;151.202;2022-12-08T15:58:51;8.83;;;2.92;;
25667;SDS011;18003;-33.830;151.202;2022-12-08T16:01:21;11.03;;;2.70;;
25667;SDS011;18003;-33.830;151.202;2022-12-08T16:03:51;10.13;;;2.65;;
25667;SDS011;18003;-33.830;151.202;2022-12-08T16:06:21;10.13;;;2.65;;
25667;SDS011;18003;-33.830;151.202;2022-12-08T16:08:51;8.00;;;2.50;;
25667;SDS011;18003;-33.830;151.202;2022-12-08T16:11:23;8.98;;;2.20;;
25667;SDS011;18003;-33.830;151.202;2022-12-08T16:14:10;9.03;;;2.58;;
25667;SDS011;18003;-33.830;151.202;2022-12-08T16:16:40;11.70;;;3.00;;
25667;SDS011;18003;-33.830;151.202;2022-12-08T16:19:13;10.90;;;3.02;;
25667;SDS011;18003;-33.830;151.202;2022-12-08T16:21:43;11.78;;;2.95;;
25667;SDS011;18003;-33.830;151.202;2022-12-08T16:24:13;11.75;;;3.15;;
25667;SDS011;18003;-33.830;151.202;2022-12-08T16:26:43;9.25;;;2.67;;
25667;SDS011;18003;-33.830;151.202;2022-12-08T16:29:18;9.18;;;3.10;;
25667;SDS011;18003;-33.830;151.202;2022-12-08T16:31:48;10.93;;;3.05;;
25667;SDS011;18003;-33.830;151.202;2022-12-08T16:34:18;14.33;;;2.95;;
25667;SDS011;18003;-33.830;151.202;2022-12-08T16:36:49;11.50;;;3.30;;